createdAt,value
2023-08-24T00:00:29.355Z,96.80
2023-08-24T00:02:55.920Z,96.89
2023-08-24T00:05:26.074Z,96.50
2023-08-24T00:07:54.104Z,96.30
2023-08-24T00:10:20.734Z,95.91
2023-08-24T00:12:47.243Z,95.53
2023-08-24T00:15:20.246Z,95.19
2023-08-24T00:17:47.241Z,94.72
2023-08-24T00:20:14.702Z,95.22
2023-08-24T00:22:41.536Z,95.44
2023-08-24T00:25:09.638Z,95.88
2023-08-24T00:27:36.835Z,95.01
2023-08-24T00:30:05.545Z,95.63
2023-08-24T00:32:35.415Z,95.54
2023-08-24T00:35:11.213Z,96.22
2023-08-24T00:37:38.792Z,96.42
2023-08-24T00:40:10.909Z,97.32
2023-08-24T00:42:45.445Z,97.42
2023-08-24T00:45:16.262Z,97.01
2023-08-24T00:47:48.061Z,96.25
2023-08-24T00:50:17.444Z,96.50
2023-08-24T00:52:44.404Z,96.09
2023-08-24T00:55:11.381Z,95.85
2023-08-24T00:57:40.798Z,96.13
2023-08-24T01:00:11.312Z,96.16
2023-08-24T01:02:39.231Z,96.76
2023-08-24T01:05:06.091Z,96.41
2023-08-24T01:07:34.625Z,96.36
2023-08-24T01:10:01.162Z,96.44
2023-08-24T01:12:55.223Z,96.42
2023-08-24T01:15:45.364Z,96.33
2023-08-24T01:18:20.105Z,96.31
2023-08-24T01:20:48.182Z,96.47
2023-08-24T01:23:45.663Z,96.23
2023-08-24T01:26:13.432Z,96.38
2023-08-24T01:28:40.980Z,95.95
2023-08-24T01:31:08.859Z,95.96
2023-08-24T01:33:35.505Z,95.69
2023-08-24T01:36:02.157Z,95.55
2023-08-24T01:38:31.720Z,95.27
2023-08-24T01:41:24.272Z,95.87
2023-08-24T01:43:54.713Z,95.90
2023-08-24T01:46:23.453Z,95.94
2023-08-24T01:48:51.858Z,95.81
2023-08-24T01:51:18.501Z,95.31
2023-08-24T01:53:46.541Z,95.51
2023-08-24T01:56:16.613Z,95.55
2023-08-24T01:58:43.378Z,95.98
2023-08-24T02:01:17.328Z,96.32
2023-08-24T02:03:44.050Z,96.35
2023-08-24T02:06:10.670Z,96.34
2023-08-24T02:08:39.796Z,96.28
2023-08-24T02:11:10.050Z,96.50
2023-08-24T02:13:36.685Z,96.43
2023-08-24T02:16:09.717Z,96.68
2023-08-24T02:18:36.790Z,96.69
2023-08-24T02:21:09.337Z,97.08
2023-08-24T02:23:35.931Z,96.88
2023-08-24T02:26:02.422Z,96.71
2023-08-24T02:28:28.985Z,96.99
2023-08-24T02:30:55.714Z,96.46
2023-08-24T02:33:22.215Z,96.49
2023-08-24T02:35:49.068Z,96.53
2023-08-24T02:38:18.932Z,96.56
2023-08-24T02:40:48.960Z,96.26
2023-08-24T02:43:15.507Z,96.18
2023-08-24T02:45:42.159Z,95.96
2023-08-24T02:48:08.737Z,95.51
2023-08-24T02:50:38.180Z,95.12
2023-08-24T02:53:04.682Z,95.53
2023-08-24T02:55:33.692Z,95.21
2023-08-24T02:58:00.213Z,95.56
2023-08-24T03:00:31.021Z,95.71
2023-08-24T03:02:57.594Z,95.81
2023-08-24T03:05:25.077Z,95.82
2023-08-24T03:07:51.984Z,96.24
2023-08-24T03:10:18.673Z,96.74
2023-08-24T03:12:45.281Z,96.79
2023-08-24T03:15:11.850Z,96.92
2023-08-24T03:17:38.449Z,96.89
2023-08-24T03:20:05.751Z,96.87
2023-08-24T03:22:32.273Z,97.11
2023-08-24T03:24:58.968Z,97.36
2023-08-24T03:27:25.463Z,97.60
2023-08-24T03:29:54.516Z,97.10
2023-08-24T03:32:23.109Z,97.46
2023-08-24T03:34:49.773Z,97.16
2023-08-24T03:37:16.254Z,97.27
2023-08-24T03:39:42.813Z,97.52
2023-08-24T03:42:09.347Z,97.17
2023-08-24T03:44:35.932Z,97.56
2023-08-24T03:47:05.205Z,98.10
2023-08-24T03:49:31.822Z,98.13
2023-08-24T03:51:58.320Z,98.93
2023-08-24T03:54:27.930Z,99.02
2023-08-24T03:56:55.003Z,99.84
2023-08-24T03:59:21.483Z,100.00
2023-08-24T04:01:48.023Z,100.00
2023-08-24T04:04:14.672Z,100.00
2023-08-24T04:06:41.393Z,100.00
2023-08-24T04:09:07.917Z,100.00
2023-08-24T04:11:34.587Z,100.00
2023-08-24T04:14:01.157Z,100.00
2023-08-24T04:16:27.702Z,100.00
2023-08-24T04:18:57.570Z,100.00
2023-08-24T04:21:24.074Z,100.00
2023-08-24T04:23:50.570Z,100.00
2023-08-24T04:26:19.939Z,100.00
2023-08-24T04:28:46.550Z,100.00
2023-08-24T04:31:13.177Z,100.00
2023-08-24T04:33:39.672Z,100.00
2023-08-24T04:36:06.279Z,100.00
2023-08-24T04:38:32.772Z,100.00
2023-08-24T04:41:08.410Z,100.00
2023-08-24T04:43:35.114Z,100.00
2023-08-24T04:46:01.682Z,100.00
2023-08-24T04:48:36.510Z,100.00
2023-08-24T04:51:07.113Z,100.00
2023-08-24T04:53:33.643Z,100.00
2023-08-24T04:56:00.185Z,100.00
2023-08-24T04:58:27.536Z,100.00
2023-08-24T05:00:57.492Z,100.00
2023-08-24T05:03:24.123Z,100.00
2023-08-24T05:05:53.954Z,100.00
2023-08-24T05:08:21.728Z,100.00
2023-08-24T05:10:48.226Z,100.00
2023-08-24T05:13:18.768Z,100.00
2023-08-24T05:15:45.271Z,100.00
2023-08-24T05:18:14.829Z,100.00
2023-08-24T05:20:41.349Z,100.00
2023-08-24T05:23:07.881Z,100.00
2023-08-24T05:25:37.203Z,100.00
2023-08-24T05:28:07.497Z,100.00
2023-08-24T05:30:34.043Z,100.00
2023-08-24T05:33:00.739Z,100.00
2023-08-24T05:35:30.693Z,100.00
2023-08-24T05:37:57.321Z,100.00
2023-08-24T05:40:23.960Z,100.00
2023-08-24T05:42:50.529Z,100.00
2023-08-24T05:45:17.034Z,100.00
2023-08-24T05:47:46.773Z,100.00
2023-08-24T05:50:13.335Z,100.00
2023-08-24T05:52:39.921Z,100.00
2023-08-24T05:55:06.802Z,100.00
2023-08-24T05:57:33.335Z,100.00
2023-08-24T05:59:59.830Z,100.00
2023-08-24T06:02:26.411Z,100.00
2023-08-24T06:04:54.641Z,100.00
2023-08-24T06:07:22.817Z,100.00
2023-08-24T06:09:49.322Z,100.00
2023-08-24T06:12:15.960Z,100.00
2023-08-24T06:14:42.460Z,100.00
2023-08-24T06:17:11.845Z,100.00
2023-08-24T06:19:39.319Z,100.00
2023-08-24T06:22:06.627Z,100.00
2023-08-24T06:24:33.138Z,100.00
2023-08-24T06:26:59.725Z,100.00
2023-08-24T06:29:26.296Z,100.00
2023-08-24T06:31:52.953Z,100.00
2023-08-24T06:34:19.501Z,100.00
2023-08-24T06:36:49.586Z,100.00
2023-08-24T06:39:16.151Z,100.00
2023-08-24T06:41:42.695Z,100.00
2023-08-24T06:44:09.236Z,100.00
2023-08-24T06:46:35.827Z,100.00
2023-08-24T06:49:02.784Z,100.00
2023-08-24T06:51:30.309Z,100.00
2023-08-24T06:53:56.864Z,100.00
2023-08-24T06:56:23.804Z,100.00
2023-08-24T06:58:50.339Z,100.00
2023-08-24T07:01:19.760Z,100.00
2023-08-24T07:03:46.357Z,100.00
2023-08-24T07:06:15.768Z,100.00
2023-08-24T07:08:42.470Z,100.00
2023-08-24T07:11:09.096Z,100.00
2023-08-24T07:13:35.972Z,100.00
2023-08-24T07:16:04.210Z,100.00
2023-08-24T07:18:30.967Z,100.00
2023-08-24T07:20:57.486Z,100.00
2023-08-24T07:23:24.065Z,100.00
2023-08-24T07:25:50.587Z,100.00
2023-08-24T07:28:17.140Z,100.00
2023-08-24T07:30:43.666Z,100.00
2023-08-24T07:33:13.190Z,100.00
2023-08-24T07:35:40.398Z,100.00
2023-08-24T07:38:06.918Z,100.00
2023-08-24T07:40:33.451Z,100.00
2023-08-24T07:43:00.406Z,100.00
2023-08-24T07:45:27.327Z,100.00
2023-08-24T07:47:55.777Z,100.00
2023-08-24T07:50:23.899Z,100.00
2023-08-24T07:52:50.590Z,100.00
2023-08-24T07:55:17.440Z,100.00
2023-08-24T07:57:45.985Z,100.00
2023-08-24T08:00:15.733Z,100.00
2023-08-24T08:02:42.724Z,100.00
2023-08-24T08:05:11.511Z,100.00
2023-08-24T08:07:38.430Z,100.00
2023-08-24T08:10:05.774Z,100.00
2023-08-24T08:12:33.327Z,100.00
2023-08-24T08:15:00.198Z,100.00
2023-08-24T08:17:28.842Z,100.00
2023-08-24T08:19:56.669Z,100.00
2023-08-24T08:22:23.239Z,100.00
2023-08-24T08:24:51.036Z,100.00
2023-08-24T08:27:26.773Z,100.00
2023-08-24T08:29:53.277Z,100.00
2023-08-24T08:32:19.797Z,100.00
2023-08-24T08:34:46.364Z,100.00
2023-08-24T08:37:12.978Z,100.00
2023-08-24T08:39:39.666Z,100.00
2023-08-24T08:42:12.517Z,100.00
2023-08-24T08:44:39.124Z,100.00
2023-08-24T08:47:08.015Z,100.00
2023-08-24T08:49:36.646Z,100.00
2023-08-24T08:52:04.815Z,100.00
2023-08-24T08:54:31.426Z,100.00
2023-08-24T08:56:57.998Z,100.00
2023-08-24T08:59:27.302Z,100.00
2023-08-24T09:01:53.915Z,100.00
2023-08-24T09:04:20.557Z,100.00
2023-08-24T09:06:47.559Z,100.00
2023-08-24T09:09:15.840Z,100.00
2023-08-24T09:11:43.343Z,100.00
2023-08-24T09:14:16.756Z,100.00
2023-08-24T09:16:43.717Z,100.00
2023-08-24T09:19:13.130Z,100.00
2023-08-24T09:21:43.058Z,100.00
2023-08-24T09:24:10.166Z,100.00
2023-08-24T09:26:38.330Z,100.00
2023-08-24T09:29:16.267Z,100.00
2023-08-24T09:31:46.780Z,100.00
2023-08-24T09:34:14.910Z,100.00
2023-08-24T09:36:41.679Z,100.00
2023-08-24T09:39:08.264Z,100.00
2023-08-24T09:41:43.135Z,100.00
2023-08-24T09:44:10.195Z,100.00
2023-08-24T09:46:39.325Z,100.00
2023-08-24T09:49:07.121Z,100.00
2023-08-24T09:51:38.168Z,100.00
2023-08-24T09:54:10.077Z,100.00
2023-08-24T09:56:42.213Z,100.00
2023-08-24T09:59:14.298Z,100.00
2023-08-24T10:01:45.892Z,100.00
2023-08-24T10:04:13.210Z,100.00
2023-08-24T10:06:43.647Z,100.00
2023-08-24T10:09:15.986Z,100.00
2023-08-24T10:11:50.598Z,100.00
2023-08-24T10:14:22.217Z,100.00
2023-08-24T10:16:49.699Z,100.00
2023-08-24T10:19:16.600Z,100.00
2023-08-24T10:21:44.057Z,100.00
2023-08-24T10:24:12.429Z,100.00
2023-08-24T10:26:40.998Z,100.00
2023-08-24T10:29:08.470Z,100.00
2023-08-24T10:31:41.710Z,100.00
2023-08-24T10:34:08.918Z,100.00
2023-08-24T10:36:35.890Z,100.00
2023-08-24T10:39:12.238Z,100.00
2023-08-24T10:41:49.673Z,100.00
2023-08-24T10:44:36.771Z,95.83
2023-08-24T10:47:13.454Z,88.22
2023-08-24T10:49:40.363Z,94.78
2023-08-24T10:52:20.821Z,89.42
2023-08-24T10:54:49.962Z,89.27
2023-08-24T10:57:25.368Z,90.58
2023-08-24T11:00:10.215Z,89.34
2023-08-24T11:02:47.990Z,88.42
2023-08-24T11:05:22.476Z,86.11
2023-08-24T11:07:51.226Z,87.55
2023-08-24T11:10:18.647Z,86.87
2023-08-24T11:13:13.030Z,88.38
2023-08-24T11:15:43.924Z,88.91
2023-08-24T11:18:19.585Z,86.61
2023-08-24T11:20:48.067Z,84.82
2023-08-24T11:23:16.726Z,86.68
2023-08-24T11:25:43.456Z,86.91
2023-08-24T11:28:10.025Z,85.40
2023-08-24T11:30:43.829Z,86.37
2023-08-24T11:33:10.433Z,81.05
2023-08-24T11:35:38.430Z,80.84
2023-08-24T11:38:05.728Z,84.97
2023-08-24T11:40:32.501Z,86.59
2023-08-24T11:42:59.930Z,83.77
2023-08-24T11:45:33.920Z,84.36
2023-08-24T11:48:02.191Z,83.30
2023-08-24T11:50:29.558Z,83.29
2023-08-24T11:52:56.214Z,82.79
2023-08-24T11:55:24.067Z,80.83
2023-08-24T11:57:52.118Z,80.50
2023-08-24T12:00:24.530Z,79.89
2023-08-24T12:02:51.524Z,83.76
2023-08-24T12:05:25.248Z,85.08
2023-08-24T12:07:55.668Z,87.58
2023-08-24T12:10:23.117Z,81.61
2023-08-24T12:12:50.302Z,79.55
2023-08-24T12:15:24.661Z,82.10
2023-08-24T12:17:51.232Z,81.86
2023-08-24T12:20:22.931Z,79.56
2023-08-24T12:22:56.870Z,81.43
2023-08-24T12:25:24.650Z,80.29
2023-08-24T12:28:17.607Z,80.04
2023-08-24T12:30:54.430Z,78.33
2023-08-24T12:33:25.758Z,75.75
2023-08-24T12:36:01.852Z,80.66
2023-08-24T12:38:28.683Z,82.58
2023-08-24T12:40:55.898Z,82.45
2023-08-24T12:43:22.511Z,78.40
2023-08-24T12:45:51.965Z,79.42
2023-08-24T12:48:18.528Z,79.07
2023-08-24T12:50:45.164Z,80.87
2023-08-24T12:53:12.283Z,80.43
2023-08-24T12:55:41.150Z,78.79
2023-08-24T12:58:07.779Z,76.93
2023-08-24T13:00:34.369Z,76.72
2023-08-24T13:03:01.160Z,78.64
2023-08-24T13:05:27.707Z,79.73
2023-08-24T13:07:54.426Z,78.26
2023-08-24T13:10:21.089Z,82.56
2023-08-24T13:12:47.639Z,82.08
2023-08-24T13:15:16.900Z,80.97
2023-08-24T13:17:43.422Z,79.70
2023-08-24T13:20:10.136Z,78.89
2023-08-24T13:22:39.309Z,78.28
2023-08-24T13:25:06.283Z,79.35
2023-08-24T13:27:32.805Z,80.83
2023-08-24T13:30:02.360Z,81.14
2023-08-24T13:32:29.188Z,74.78
2023-08-24T13:34:57.107Z,77.11
2023-08-24T13:37:24.816Z,78.59
2023-08-24T13:39:52.307Z,76.54
2023-08-24T13:42:19.359Z,78.04
2023-08-24T13:44:47.964Z,80.15
2023-08-24T13:47:14.529Z,76.93
2023-08-24T13:49:41.515Z,76.90
2023-08-24T13:52:08.879Z,81.02
2023-08-24T13:54:35.839Z,81.76
2023-08-24T13:57:02.968Z,84.57
2023-08-24T13:59:29.949Z,82.57
2023-08-24T14:01:56.708Z,82.30
2023-08-24T14:04:23.427Z,83.78
2023-08-24T14:06:50.048Z,87.99
2023-08-24T14:09:19.600Z,88.34
2023-08-24T14:11:48.898Z,85.54
2023-08-24T14:14:15.871Z,83.84
2023-08-24T14:16:42.728Z,85.82
2023-08-24T14:19:09.587Z,90.27
2023-08-24T14:21:44.998Z,89.22
2023-08-24T14:24:15.026Z,90.45
2023-08-24T14:26:46.548Z,91.86
2023-08-24T14:29:14.730Z,88.31
2023-08-24T14:31:43.838Z,88.43
2023-08-24T14:34:10.450Z,84.87
2023-08-24T14:36:37.219Z,90.22
2023-08-24T14:39:06.313Z,91.20
2023-08-24T14:41:33.578Z,88.70
2023-08-24T14:44:00.267Z,89.64
2023-08-24T14:46:29.630Z,90.65
2023-08-24T14:48:56.294Z,91.91
2023-08-24T14:51:22.851Z,89.47
2023-08-24T14:53:52.846Z,86.43
2023-08-24T14:56:19.429Z,90.94
2023-08-24T14:58:46.152Z,90.57
2023-08-24T15:01:12.692Z,92.59
2023-08-24T15:03:39.182Z,94.76
2023-08-24T15:06:07.199Z,94.03
2023-08-24T15:08:34.425Z,92.31
2023-08-24T15:11:02.512Z,92.38
2023-08-24T15:13:30.724Z,92.48
2023-08-24T15:15:58.653Z,93.43
2023-08-24T15:18:27.122Z,94.81
2023-08-24T15:20:53.755Z,93.83
2023-08-24T15:23:28.658Z,91.15
2023-08-24T15:25:56.697Z,90.32
2023-08-24T15:28:24.214Z,90.06
2023-08-24T15:30:54.527Z,90.65
2023-08-24T15:33:21.505Z,94.75
2023-08-24T15:35:51.972Z,97.47
2023-08-24T15:38:18.526Z,99.21
2023-08-24T15:40:53.435Z,98.87
2023-08-24T15:43:20.007Z,99.84
2023-08-24T15:45:46.620Z,100.00
2023-08-24T15:48:13.154Z,100.00
2023-08-24T15:50:39.703Z,100.00
2023-08-24T15:53:18.075Z,99.03
2023-08-24T15:55:44.649Z,100.00
2023-08-24T15:58:14.793Z,100.00
2023-08-24T16:00:41.640Z,100.00
2023-08-24T16:03:10.422Z,100.00
2023-08-24T16:05:37.015Z,100.00
2023-08-24T16:08:04.937Z,100.00
2023-08-24T16:10:33.322Z,100.00
2023-08-24T16:13:01.607Z,100.00
2023-08-24T16:15:31.804Z,100.00
2023-08-24T16:17:58.552Z,100.00
2023-08-24T16:20:25.072Z,100.00
2023-08-24T16:22:51.721Z,100.00
2023-08-24T16:25:18.229Z,100.00
2023-08-24T16:27:47.876Z,100.00
2023-08-24T16:30:14.446Z,100.00
2023-08-24T16:32:41.124Z,100.00
2023-08-24T16:35:09.776Z,100.00
2023-08-24T16:37:36.346Z,100.00
2023-08-24T16:40:05.950Z,100.00
2023-08-24T16:42:35.729Z,100.00
2023-08-24T16:45:02.233Z,100.00
2023-08-24T16:47:30.202Z,100.00
2023-08-24T16:49:56.761Z,100.00
2023-08-24T16:52:23.524Z,100.00
2023-08-24T16:54:51.154Z,100.00
2023-08-24T16:57:17.770Z,100.00
2023-08-24T16:59:44.319Z,100.00
2023-08-24T17:02:14.506Z,100.00
2023-08-24T17:04:41.150Z,100.00
2023-08-24T17:07:07.758Z,100.00
2023-08-24T17:09:37.890Z,100.00
2023-08-24T17:12:07.463Z,100.00
2023-08-24T17:14:33.955Z,100.00
2023-08-24T17:17:03.629Z,100.00
2023-08-24T17:19:30.390Z,100.00
2023-08-24T17:22:00.323Z,100.00
2023-08-24T17:24:27.009Z,100.00
2023-08-24T17:26:54.490Z,100.00
2023-08-24T17:29:21.024Z,100.00
2023-08-24T17:31:48.334Z,100.00
2023-08-24T17:34:14.975Z,100.00
2023-08-24T17:36:41.488Z,100.00
2023-08-24T17:39:08.943Z,100.00
2023-08-24T17:41:39.450Z,100.00
2023-08-24T17:44:05.967Z,100.00
2023-08-24T17:46:36.150Z,100.00
2023-08-24T17:49:11.692Z,100.00
2023-08-24T17:51:38.520Z,100.00
2023-08-24T17:54:05.117Z,100.00
2023-08-24T17:56:34.344Z,100.00
2023-08-24T17:59:00.951Z,100.00
2023-08-24T18:01:30.380Z,100.00
2023-08-24T18:03:57.087Z,100.00
2023-08-24T18:06:23.687Z,100.00
2023-08-24T18:08:52.371Z,100.00
2023-08-24T18:11:19.630Z,100.00
2023-08-24T18:13:48.423Z,100.00
2023-08-24T18:16:15.567Z,100.00
2023-08-24T18:18:42.318Z,100.00
2023-08-24T18:21:11.517Z,100.00
2023-08-24T18:23:38.068Z,100.00
2023-08-24T18:26:05.499Z,100.00
2023-08-24T18:28:32.076Z,100.00
2023-08-24T18:30:59.625Z,100.00
2023-08-24T18:33:26.841Z,100.00
2023-08-24T18:35:56.436Z,100.00
2023-08-24T18:38:24.049Z,100.00
2023-08-24T18:40:55.071Z,100.00
2023-08-24T18:43:22.099Z,100.00
2023-08-24T18:45:58.667Z,100.00
2023-08-24T18:48:26.152Z,100.00
2023-08-24T18:50:53.097Z,100.00
2023-08-24T18:53:19.716Z,100.00
2023-08-24T18:55:46.474Z,100.00
2023-08-24T18:58:13.077Z,100.00
2023-08-24T19:00:39.687Z,100.00
2023-08-24T19:03:06.264Z,100.00
2023-08-24T19:05:33.641Z,100.00
2023-08-24T19:08:00.533Z,100.00
2023-08-24T19:10:30.063Z,100.00
2023-08-24T19:12:56.586Z,100.00
2023-08-24T19:15:23.239Z,100.00
2023-08-24T19:17:49.753Z,100.00
2023-08-24T19:20:19.340Z,100.00
2023-08-24T19:22:46.105Z,100.00
2023-08-24T19:25:13.307Z,100.00
2023-08-24T19:27:40.071Z,100.00
2023-08-24T19:30:07.227Z,100.00
2023-08-24T19:32:34.021Z,100.00
2023-08-24T19:35:00.579Z,100.00
2023-08-24T19:37:27.095Z,100.00
2023-08-24T19:39:53.724Z,100.00
2023-08-24T19:42:26.035Z,100.00
2023-08-24T19:44:53.010Z,100.00
2023-08-24T19:47:19.555Z,100.00
2023-08-24T19:49:47.565Z,100.00
2023-08-24T19:52:16.922Z,100.00
2023-08-24T19:54:43.492Z,100.00
2023-08-24T19:57:14.924Z,100.00
2023-08-24T19:59:41.527Z,100.00
2023-08-24T20:02:08.163Z,100.00
2023-08-24T20:04:35.166Z,100.00
2023-08-24T20:07:06.826Z,100.00
2023-08-24T20:09:33.429Z,100.00
2023-08-24T20:12:00.077Z,100.00
2023-08-24T20:14:26.585Z,100.00
2023-08-24T20:16:53.181Z,100.00
2023-08-24T20:19:22.992Z,100.00
2023-08-24T20:21:53.179Z,100.00
2023-08-24T20:24:24.758Z,100.00
2023-08-24T20:26:52.264Z,100.00
2023-08-24T20:29:18.786Z,100.00
2023-08-24T20:31:45.302Z,100.00
2023-08-24T20:34:11.875Z,100.00
2023-08-24T20:36:39.382Z,100.00
2023-08-24T20:39:12.397Z,100.00
2023-08-24T20:41:39.136Z,100.00
2023-08-24T20:44:05.750Z,100.00
2023-08-24T20:46:34.079Z,100.00
2023-08-24T20:49:00.652Z,100.00
2023-08-24T20:51:27.205Z,100.00
2023-08-24T20:53:53.711Z,100.00
2023-08-24T20:56:22.859Z,100.00
2023-08-24T20:58:51.587Z,100.00
2023-08-24T21:01:18.153Z,100.00
2023-08-24T21:03:45.203Z,100.00
2023-08-24T21:06:11.926Z,100.00
2023-08-24T21:08:41.362Z,100.00
2023-08-24T21:11:08.905Z,100.00
2023-08-24T21:13:35.526Z,100.00
2023-08-24T21:16:02.052Z,100.00
2023-08-24T21:18:28.656Z,100.00
2023-08-24T21:20:59.386Z,100.00
2023-08-24T21:23:26.215Z,100.00
2023-08-24T21:25:52.700Z,100.00
2023-08-24T21:28:19.253Z,100.00
2023-08-24T21:30:45.778Z,100.00
2023-08-24T21:33:12.774Z,100.00
2023-08-24T21:35:39.505Z,100.00
2023-08-24T21:38:06.946Z,100.00
2023-08-24T21:40:33.523Z,100.00
2023-08-24T21:43:00.827Z,100.00
2023-08-24T21:45:27.315Z,100.00
2023-08-24T21:47:54.199Z,100.00
2023-08-24T21:50:20.853Z,100.00
2023-08-24T21:52:47.381Z,100.00
2023-08-24T21:55:13.975Z,100.00
2023-08-24T21:57:40.588Z,100.00
2023-08-24T22:00:13.052Z,100.00
2023-08-24T22:02:42.718Z,100.00
2023-08-24T22:05:09.696Z,100.00
2023-08-24T22:07:39.952Z,100.00
2023-08-24T22:10:10.803Z,100.00
2023-08-24T22:12:37.342Z,100.00
2023-08-24T22:15:05.012Z,100.00
2023-08-24T22:17:31.634Z,100.00
2023-08-24T22:19:58.127Z,100.00
2023-08-24T22:22:24.775Z,100.00
2023-08-24T22:24:51.458Z,100.00
2023-08-24T22:27:18.877Z,100.00
2023-08-24T22:29:45.417Z,100.00
2023-08-24T22:32:11.963Z,100.00
2023-08-24T22:34:39.378Z,100.00
2023-08-24T22:37:08.767Z,100.00
2023-08-24T22:39:35.583Z,100.00
2023-08-24T22:42:04.568Z,100.00
2023-08-24T22:44:31.121Z,100.00
2023-08-24T22:46:57.638Z,100.00
2023-08-24T22:49:24.158Z,100.00
2023-08-24T22:51:50.699Z,100.00
2023-08-24T22:54:20.588Z,100.00
2023-08-24T22:56:50.314Z,100.00
2023-08-24T22:59:16.950Z,100.00
2023-08-24T23:01:44.006Z,100.00
2023-08-24T23:04:13.403Z,100.00
2023-08-24T23:07:08.012Z,100.00
2023-08-24T23:09:39.898Z,100.00
2023-08-24T23:12:06.666Z,100.00
2023-08-24T23:14:35.198Z,100.00
2023-08-24T23:17:07.467Z,100.00
2023-08-24T23:19:37.132Z,100.00
2023-08-24T23:22:04.159Z,100.00
2023-08-24T23:27:03.184Z,100.00
2023-08-24T23:29:29.983Z,100.00
2023-08-24T23:31:56.465Z,100.00
2023-08-24T23:34:24.751Z,100.00
2023-08-24T23:36:51.429Z,100.00
2023-08-24T23:39:18.350Z,100.00
2023-08-24T23:41:49.744Z,100.00
2023-08-24T23:44:16.810Z,100.00
2023-08-24T23:46:43.346Z,100.00
2023-08-24T23:49:09.882Z,100.00
2023-08-24T23:51:36.672Z,100.00
2023-08-24T23:54:09.018Z,100.00
2023-08-24T23:56:35.607Z,100.00
2023-08-24T23:59:07.913Z,100.00
